Adriatic Id — VRFP6 — position and weather

sailwx.info

Track history (hours):
 
Tides and Currents Weather Stations Pressure Air Temp Water Temp Dewpoint Dewpoint Depression Visibility Wind Speed Wind Dir Waves Ship Positions

Adriatic Id

Last reported at 2014-Jul-26 04:33 UTC. Time now 2014-Jul-26 05:12 UTC.
Position N 36°48' E 013°11'.

Length 158 m; draft 7.3 m.

Type: Cargo ship. MMSI: 477559800.

Date/timePositionNaut miles runAvg speedWind from/ knotsBaromVisibWave heightAir tempDewpointWater temp
2014-Jul-26 04:33N 36°48' E 013°11'1413.8
2014-Jul-26 03:33N 36°43' E 013°27'1414.0
2014-Jul-26 02:34N 36°39' E 013°44'1413.8
2014-Jul-26 01:33N 36°35' E 014°00'1413.9
2014-Jul-26 00:33N 36°30' E 014°17'1413.6
2014-Jul-25 23:34N 36°26' E 014°33'1313.1
2014-Jul-25 22:33N 36°24' E 014°49'1313.3
2014-Jul-25 21:34N 36°24' E 015°05'1313.0
2014-Jul-25 20:34N 36°23' E 015°21'40212.4
2014-Jul-24 12:14N 36°43' E 023°41'1113.7
2014-Jul-24 11:27N 36°53' E 023°48'14013.8
2014-Jul-24 01:17N 38°55' E 025°14'1113.6
2014-Jul-24 00:28N 39°05' E 025°21'4213.8
2014-Jul-23 21:24N 39°43' E 025°45'6511.0
2014-Jul-23 15:31N 40°27' E 026°47'9613.2
2014-Jul-23 08:14N 40°55' E 028°49'4 4.9
2014-Jul-23 07:29N 40°55' E 028°54'5 5.1
2014-Jul-23 06:33N 40°58' E 028°58'25 4.1
2014-Jul-23 00:16N 41°24' E 029°03'  
Track history (hours):
 
Tides and Currents Weather Stations Pressure Air Temp Water Temp Dewpoint Dewpoint Depression Visibility Wind Speed Wind Dir Waves Ship Positions

Adriatic Id

Last reported at 2014-Jul-26 04:33 UTC. Time now 2014-Jul-26 05:12 UTC.
Position N 36°48' E 013°11'.

Length 158 m; draft 7.3 m.

Type: Cargo ship. MMSI: 477559800.

Date/timePositionNaut miles runAvg speedWind from/ knotsBaromVisibWave heightAir tempDewpointWater temp
2014-Jul-26 04:33N 36°48' E 013°11'1413.8
2014-Jul-26 03:33N 36°43' E 013°27'1414.0
2014-Jul-26 02:34N 36°39' E 013°44'1413.8
2014-Jul-26 01:33N 36°35' E 014°00'1413.9
2014-Jul-26 00:33N 36°30' E 014°17'1413.6
2014-Jul-25 23:34N 36°26' E 014°33'1313.1
2014-Jul-25 22:33N 36°24' E 014°49'1313.3
2014-Jul-25 21:34N 36°24' E 015°05'1313.0
2014-Jul-25 20:34N 36°23' E 015°21'40212.4
2014-Jul-24 12:14N 36°43' E 023°41'1113.7
2014-Jul-24 11:27N 36°53' E 023°48'14013.8
2014-Jul-24 01:17N 38°55' E 025°14'1113.6
2014-Jul-24 00:28N 39°05' E 025°21'4213.8
2014-Jul-23 21:24N 39°43' E 025°45'6511.0
2014-Jul-23 15:31N 40°27' E 026°47'9613.2
2014-Jul-23 08:14N 40°55' E 028°49'4 4.9
2014-Jul-23 07:29N 40°55' E 028°54'5 5.1
2014-Jul-23 06:33N 40°58' E 028°58'25 4.1
2014-Jul-23 00:16N 41°24' E 029°03'  

Dump ship's entire track history